Trans Future 10 — 3FEN2 — position and weather

sailwx.info

Track history (hours):
 
Tides and Currents Weather Stations Pressure Air Temp Water Temp Dewpoint Dewpoint Depression Visibility Wind Speed Wind Dir Waves Ship Positions

Trans Future 10

Last reported at 2017-Nov-12 11:57 UTC. Time now 2017-Nov-22 09:22 UTC.
Position N 21°52' E 114°44'.
Warning: this ship's position is 9 days out of date.

Length 166 m; draft 6.1 m.

Type: Cargo ship. MMSI: 356143000.

Date/timePositionNaut miles runAvg speedWind from/ knotsBaromVisibWave heightAir tempDewpointWater temp
2017-Nov-12 11:57N 21°52' E 114°44'1018.3
2017-Nov-12 11:24N 21°58' E 114°36'718.6
2017-Nov-12 11:00N 22°03' E 114°29'1018.3
2017-Nov-12 10:29N 22°06' E 114°20'913.8
2017-Nov-12 09:51N 22°10' E 114°11'411.3
2017-Nov-12 09:30N 22°14' E 114°09'611.3
2017-Nov-12 09:00N 22°18' E 114°06'2 0.4
2017-Nov-12 03:43N 22°20' E 114°07'1 4.6
2017-Nov-12 03:30N 22°19' E 114°07'8 9.5
2017-Nov-12 02:37N 22°12' E 114°11'6 7.4
2017-Nov-12 01:45N 22°08' E 114°17'415.5
2017-Nov-12 01:29N 22°08' E 114°21'917.4
2017-Nov-12 01:00N 22°09' E 114°30'1019.6
2017-Nov-12 00:30N 22°10' E 114°41'918.4
2017-Nov-12 00:00N 22°12' E 114°50'917.6
2017-Nov-11 23:30N 22°14' E 114°60'917.6
2017-Nov-11 23:00N 22°15' E 115°09'1417.6
2017-Nov-11 22:12N 22°18' E 115°24'  
2017-Nov-06 02:29N 35°28' E 139°41'0 0.0
2017-Nov-06 02:00N 35°28' E 139°41'0 0.0
2017-Nov-06 01:29N 35°28' E 139°41'0 0.0
2017-Nov-06 00:59N 35°28' E 139°41'0 0.0
2017-Nov-06 00:27N 35°28' E 139°41'0 0.0
2017-Nov-05 23:59N 35°28' E 139°41'0 0.0
2017-Nov-05 23:29N 35°28' E 139°41'0 0.0
2017-Nov-05 22:59N 35°28' E 139°41'0 0.0
2017-Nov-05 22:29N 35°28' E 139°41'1 1.6
2017-Nov-05 22:00N 35°28' E 139°42'4 7.9
2017-Nov-05 21:31N 35°25' E 139°46'510.9
2017-Nov-05 21:01N 35°20' E 139°44'611.2
2017-Nov-05 20:31N 35°15' E 139°47'611.0
2017-Nov-05 20:00N 35°09' E 139°46'4 6.5
2017-Nov-05 19:24N 35°06' E 139°45'818.9
2017-Nov-05 19:00N 34°59' E 139°41'1019.1
2017-Nov-05 18:30N 34°51' E 139°35'  
Track history (hours):
 
Tides and Currents Weather Stations Pressure Air Temp Water Temp Dewpoint Dewpoint Depression Visibility Wind Speed Wind Dir Waves Ship Positions

Trans Future 10

Last reported at 2017-Nov-12 11:57 UTC. Time now 2017-Nov-22 09:22 UTC.
Position N 21°52' E 114°44'.
Warning: this ship's position is 9 days out of date.

Length 166 m; draft 6.1 m.

Type: Cargo ship. MMSI: 356143000.

Date/timePositionNaut miles runAvg speedWind from/ knotsBaromVisibWave heightAir tempDewpointWater temp
2017-Nov-12 11:57N 21°52' E 114°44'1018.3
2017-Nov-12 11:24N 21°58' E 114°36'718.6
2017-Nov-12 11:00N 22°03' E 114°29'1018.3
2017-Nov-12 10:29N 22°06' E 114°20'913.8
2017-Nov-12 09:51N 22°10' E 114°11'411.3
2017-Nov-12 09:30N 22°14' E 114°09'611.3
2017-Nov-12 09:00N 22°18' E 114°06'2 0.4
2017-Nov-12 03:43N 22°20' E 114°07'1 4.6
2017-Nov-12 03:30N 22°19' E 114°07'8 9.5
2017-Nov-12 02:37N 22°12' E 114°11'6 7.4
2017-Nov-12 01:45N 22°08' E 114°17'415.5
2017-Nov-12 01:29N 22°08' E 114°21'917.4
2017-Nov-12 01:00N 22°09' E 114°30'1019.6
2017-Nov-12 00:30N 22°10' E 114°41'918.4
2017-Nov-12 00:00N 22°12' E 114°50'917.6
2017-Nov-11 23:30N 22°14' E 114°60'917.6
2017-Nov-11 23:00N 22°15' E 115°09'1417.6
2017-Nov-11 22:12N 22°18' E 115°24'  
2017-Nov-06 02:29N 35°28' E 139°41'0 0.0
2017-Nov-06 02:00N 35°28' E 139°41'0 0.0
2017-Nov-06 01:29N 35°28' E 139°41'0 0.0
2017-Nov-06 00:59N 35°28' E 139°41'0 0.0
2017-Nov-06 00:27N 35°28' E 139°41'0 0.0
2017-Nov-05 23:59N 35°28' E 139°41'0 0.0
2017-Nov-05 23:29N 35°28' E 139°41'0 0.0
2017-Nov-05 22:59N 35°28' E 139°41'0 0.0
2017-Nov-05 22:29N 35°28' E 139°41'1 1.6
2017-Nov-05 22:00N 35°28' E 139°42'4 7.9
2017-Nov-05 21:31N 35°25' E 139°46'510.9
2017-Nov-05 21:01N 35°20' E 139°44'611.2
2017-Nov-05 20:31N 35°15' E 139°47'611.0
2017-Nov-05 20:00N 35°09' E 139°46'4 6.5
2017-Nov-05 19:24N 35°06' E 139°45'818.9
2017-Nov-05 19:00N 34°59' E 139°41'1019.1
2017-Nov-05 18:30N 34°51' E 139°35'  

Dump ship's entire track history